Nautical Dream — D5FL6 — position and weather

sailwx.info

Track history (hours):
 
Tides and Currents Weather Stations Pressure Air Temp Water Temp Dewpoint Dewpoint Depression Visibility Wind Speed Wind Dir Waves Ship Positions

Nautical Dream

Last reported at 2018-Jun-13 20:13 UTC. Time now 2018-Jun-25 02:21 UTC.
Position N 27°43' W 016°22'.
Warning: this ship's position is 11 days out of date.

Length 292 m; draft 8.4 m.

Type: Cargo ship. MMSI: 636016304.

Date/timePositionNaut miles runAvg speedWind from/ knotsBaromVisibWave heightAir tempDewpointWater temp
2018-Jun-13 20:13N 27°43' W 016°22'315.4
2018-Jun-13 19:59N 27°46' W 016°22'1715.4
2018-Jun-13 18:55N 28°03' W 016°19'615.5
2018-Jun-13 18:31N 28°08' W 016°14'815.3
2018-Jun-13 18:00N 28°14' W 016°09'815.3
2018-Jun-13 17:30N 28°20' W 016°04'714.8
2018-Jun-13 17:01N 28°25' W 015°57'714.9
2018-Jun-13 16:30N 28°30' W 015°52'814.9
2018-Jun-13 16:00N 28°36' W 015°47'714.7
2018-Jun-13 15:30N 28°43' W 015°43'714.7
2018-Jun-13 15:01N 28°50' W 015°41'714.8
2018-Jun-13 14:31N 28°57' W 015°39'714.7
2018-Jun-13 14:00N 29°04' W 015°36'  
2018-Jun-10 00:33N 48°21' W 006°14'3413.6
2018-Jun-09 22:05N 48°51' W 005°49'114.0
2018-Jun-09 22:00N 48°52' W 005°48'3814.5
2018-Jun-09 19:23N 49°13' W 004°60'2315.0
2018-Jun-09 17:51N 49°24' W 004°29'511.5
2018-Jun-09 17:24N 49°27' W 004°22'1412.7
2018-Jun-09 16:16N 49°34' W 004°03'712.8
2018-Jun-09 15:45N 49°37' W 003°54'912.5
2018-Jun-09 15:00N 49°42' W 003°42'612.4
2018-Jun-09 14:30N 49°45' W 003°34'612.3
2018-Jun-09 14:00N 49°48' W 003°25'612.5
2018-Jun-09 13:30N 49°52' W 003°18'612.9
2018-Jun-09 13:00N 49°55' W 003°09'713.3
2018-Jun-09 12:30N 49°58' W 002°60'713.7
2018-Jun-09 12:00N 50°01' W 002°50'714.2
2018-Jun-09 11:30N 50°03' W 002°40'814.7
2018-Jun-09 11:00N 50°05' W 002°28'715.2
2018-Jun-09 10:30N 50°07' W 002°17'815.4
2018-Jun-09 10:00N 50°09' W 002°05'815.4
2018-Jun-09 09:30N 50°11' W 001°54'714.7
2018-Jun-09 09:00N 50°12' W 001°43'611.3
2018-Jun-09 08:30N 50°14' W 001°34'713.7
2018-Jun-09 08:01N 50°16' W 001°24'816.0
2018-Jun-09 07:31N 50°18' W 001°12'815.3
2018-Jun-09 07:01N 50°20' W 001°00'714.7
2018-Jun-09 06:31N 50°22' W 000°49'714.0
2018-Jun-09 06:00N 50°23' W 000°38'713.7
2018-Jun-09 05:30N 50°25' W 000°28'713.5
2018-Jun-09 05:00N 50°27' W 000°18'713.6
2018-Jun-09 04:30N 50°29' W 000°08'713.5
2018-Jun-09 04:00N 50°31' E 000°02'713.7
2018-Jun-09 03:31N 50°33' E 000°13'714.0
2018-Jun-09 03:00N 50°34' E 000°24'714.5
2018-Jun-09 02:30N 50°36' E 000°35'714.9
2018-Jun-09 02:00N 50°40' E 000°44'815.5
2018-Jun-09 01:30N 50°46' E 000°53'815.8
2018-Jun-09 01:00N 50°51' E 001°03'815.8
2018-Jun-09 00:30N 50°56' E 001°12'815.7
2018-Jun-09 00:00N 51°01' E 001°22'815.3
2018-Jun-08 23:30N 51°06' E 001°31'714.7
2018-Jun-08 23:00N 51°10' E 001°40'713.9
2018-Jun-08 22:30N 51°16' E 001°47'714.0
2018-Jun-08 22:00N 51°22' E 001°53'713.7
2018-Jun-08 21:30N 51°28' E 001°58'713.9
2018-Jun-08 21:00N 51°33' E 002°06'713.8
2018-Jun-08 20:30N 51°38' E 002°14'713.7
2018-Jun-08 20:00N 51°42' E 002°22'713.8
2018-Jun-08 19:30N 51°47' E 002°29'714.3
2018-Jun-08 19:00N 51°53' E 002°37'714.9
2018-Jun-08 18:30N 51°58' E 002°46'714.7
2018-Jun-08 18:00N 52°03' E 002°55'814.9
2018-Jun-08 17:30N 52°03' E 003°07'815.7
2018-Jun-08 17:00N 52°03' E 003°20'815.7
2018-Jun-08 16:30N 52°03' E 003°33'714.8
2018-Jun-08 16:00N 52°03' E 003°45'4 8.0
2018-Jun-08 15:30N 52°02' E 003°51'3 5.5
2018-Jun-08 15:00N 52°02' E 003°55'611.2
2018-Jun-08 14:30N 51°59' E 004°03'3 5.9
2018-Jun-08 14:00N 51°57' E 004°05'1 1.8
2018-Jun-08 13:30N 51°56' E 004°04'0 0.1
2018-Jun-08 13:00N 51°56' E 004°03'0 0.0
2018-Jun-08 12:29N 51°56' E 004°03'0 0.0
2018-Jun-08 11:59N 51°56' E 004°03'0 0.0
2018-Jun-08 11:29N 51°56' E 004°03'0 0.0
2018-Jun-08 10:59N 51°56' E 004°03'0 0.0
2018-Jun-08 10:29N 51°56' E 004°03'0 0.0
2018-Jun-08 09:59N 51°56' E 004°03'0 0.0
2018-Jun-08 09:29N 51°56' E 004°03'0 0.0
2018-Jun-08 08:59N 51°56' E 004°03'0 0.0
2018-Jun-08 08:29N 51°56' E 004°03'0 0.0
2018-Jun-08 07:59N 51°56' E 004°03'0 0.0
2018-Jun-08 07:29N 51°56' E 004°03'0 0.0
2018-Jun-08 06:59N 51°56' E 004°03'0 0.0
2018-Jun-08 06:29N 51°56' E 004°03'0 0.0
2018-Jun-08 05:29N 51°56' E 004°03'0 0.0
2018-Jun-08 04:59N 51°56' E 004°03'0 0.0
2018-Jun-08 04:29N 51°56' E 004°03'0 0.0
2018-Jun-08 03:59N 51°56' E 004°03'0 0.0
2018-Jun-08 03:30N 51°56' E 004°03'0 0.0
2018-Jun-08 02:59N 51°56' E 004°03'0 0.0
2018-Jun-08 02:29N 51°56' E 004°03'0 0.0
2018-Jun-08 01:59N 51°56' E 004°03'0 0.0
2018-Jun-08 01:29N 51°56' E 004°03'0 0.0
2018-Jun-08 00:59N 51°56' E 004°03'0 0.0
2018-Jun-08 00:29N 51°56' E 004°03'0 0.0
2018-Jun-07 23:59N 51°56' E 004°03'0 0.0
2018-Jun-07 23:29N 51°56' E 004°03'0 0.0
2018-Jun-07 22:59N 51°56' E 004°03'0 0.0
2018-Jun-07 22:29N 51°56' E 004°03'0 0.0
2018-Jun-07 21:59N 51°56' E 004°03'0 0.0
2018-Jun-07 21:29N 51°56' E 004°03'0 0.0
2018-Jun-07 20:59N 51°56' E 004°03'0 0.0
2018-Jun-07 20:29N 51°56' E 004°03'0 0.0
2018-Jun-07 19:59N 51°56' E 004°03'0 0.0
2018-Jun-07 19:29N 51°56' E 004°03'0 0.0
2018-Jun-07 18:59N 51°56' E 004°03'0 0.0
2018-Jun-07 18:29N 51°56' E 004°03'0 0.0
2018-Jun-07 17:59N 51°56' E 004°03'0 0.0
2018-Jun-07 17:29N 51°56' E 004°03'0 0.0
2018-Jun-07 16:59N 51°56' E 004°03'0 0.0
2018-Jun-07 16:29N 51°56' E 004°03'0 0.0
2018-Jun-07 15:59N 51°56' E 004°03'0 0.0
2018-Jun-07 15:29N 51°56' E 004°03'0 0.0
2018-Jun-07 14:59N 51°56' E 004°03'0 0.0
2018-Jun-07 14:29N 51°56' E 004°03'0 0.0
2018-Jun-07 13:59N 51°56' E 004°03'0 0.0
2018-Jun-07 13:29N 51°56' E 004°03'0 0.0
2018-Jun-07 12:59N 51°56' E 004°03'0 0.0
2018-Jun-07 12:29N 51°56' E 004°03'0 0.0
2018-Jun-07 11:59N 51°56' E 004°03'0 0.0
2018-Jun-07 11:29N 51°56' E 004°03'0 0.0
2018-Jun-07 10:59N 51°56' E 004°03'0 0.0
2018-Jun-07 10:29N 51°56' E 004°03'0 0.0
2018-Jun-07 09:59N 51°56' E 004°03'0 0.0
2018-Jun-07 09:29N 51°56' E 004°03'0 0.0
2018-Jun-07 08:59N 51°56' E 004°03'0 0.0
2018-Jun-07 08:29N 51°56' E 004°03'0 0.0
2018-Jun-07 07:59N 51°56' E 004°03'0 0.0
2018-Jun-07 07:29N 51°56' E 004°03'0 0.0
2018-Jun-07 06:59N 51°56' E 004°03'0 0.0
2018-Jun-07 06:29N 51°56' E 004°03'0 0.0
2018-Jun-07 05:59N 51°56' E 004°03'0 0.0
2018-Jun-07 05:29N 51°56' E 004°03'0 0.0
2018-Jun-07 04:59N 51°56' E 004°03'0 0.0
2018-Jun-07 04:29N 51°56' E 004°03'0 0.0
2018-Jun-07 03:59N 51°56' E 004°03'0 0.0
2018-Jun-07 03:29N 51°56' E 004°03'0 0.0
2018-Jun-07 02:59N 51°56' E 004°03'0 0.0
2018-Jun-07 02:29N 51°56' E 004°03'0 0.0
2018-Jun-07 01:59N 51°56' E 004°03'0 0.0
2018-Jun-07 01:26N 51°56' E 004°03'0 0.0
2018-Jun-07 00:59N 51°56' E 004°03'0 0.0
2018-Jun-07 00:29N 51°56' E 004°03'0 0.0
2018-Jun-06 23:59N 51°56' E 004°03'0 0.0
2018-Jun-06 23:29N 51°56' E 004°03'0 0.0
2018-Jun-06 22:59N 51°56' E 004°03'0 0.0
2018-Jun-06 22:29N 51°56' E 004°03'0 0.0
2018-Jun-06 21:59N 51°56' E 004°03'0 0.0
2018-Jun-06 21:29N 51°56' E 004°03'0 0.0
2018-Jun-06 20:59N 51°56' E 004°03'0 0.0
2018-Jun-06 20:29N 51°56' E 004°03'0 0.0
2018-Jun-06 19:59N 51°56' E 004°03'0 0.0
2018-Jun-06 19:26N 51°56' E 004°03'0 0.0
2018-Jun-06 18:59N 51°56' E 004°03'0 0.0
2018-Jun-06 18:29N 51°56' E 004°03'0 0.0
2018-Jun-06 17:59N 51°56' E 004°03'0 0.0
2018-Jun-06 17:29N 51°56' E 004°03'0 0.0
2018-Jun-06 16:59N 51°56' E 004°03'0 0.0
2018-Jun-06 16:29N 51°56' E 004°03'0 0.0
2018-Jun-06 15:59N 51°56' E 004°03'0 0.0
2018-Jun-06 15:29N 51°56' E 004°03'0 0.0
2018-Jun-06 14:29N 51°56' E 004°03'0 0.0
2018-Jun-06 13:59N 51°56' E 004°03'0 0.0
2018-Jun-06 13:26N 51°56' E 004°03'0 0.0
2018-Jun-06 12:59N 51°56' E 004°03'0 0.0
2018-Jun-06 12:29N 51°56' E 004°03'0 0.0
2018-Jun-06 11:59N 51°56' E 004°03'0 0.1
2018-Jun-06 11:29N 51°56' E 004°03'0 0.1
2018-Jun-06 10:59N 51°56' E 004°03'0 0.0
2018-Jun-06 10:29N 51°56' E 004°03'0 0.0
2018-Jun-06 09:59N 51°56' E 004°03'0 0.0
2018-Jun-06 09:29N 51°56' E 004°03'0 0.0
2018-Jun-06 08:59N 51°56' E 004°03'0 0.0
2018-Jun-06 08:29N 51°56' E 004°03'0 0.0
2018-Jun-06 07:59N 51°56' E 004°03'0 0.0
2018-Jun-06 07:29N 51°56' E 004°03'0 0.0
2018-Jun-06 06:59N 51°56' E 004°03'0 0.0
2018-Jun-06 06:29N 51°56' E 004°03'0 0.0
2018-Jun-06 05:59N 51°56' E 004°03'0 0.0
2018-Jun-06 05:29N 51°56' E 004°03'0 0.0
2018-Jun-06 04:59N 51°56' E 004°03'0 0.0
2018-Jun-06 04:29N 51°56' E 004°03'0 0.0
2018-Jun-06 03:59N 51°56' E 004°03'0 0.1
2018-Jun-06 03:29N 51°56' E 004°03'0 0.0
2018-Jun-06 02:59N 51°56' E 004°03'0 0.0
2018-Jun-06 02:29N 51°56' E 004°03'0 0.0
2018-Jun-06 01:59N 51°56' E 004°03'0 0.0
2018-Jun-06 01:29N 51°56' E 004°03'0 0.0
2018-Jun-06 00:59N 51°56' E 004°03'0 0.0
2018-Jun-06 00:29N 51°56' E 004°03'0 0.0
2018-Jun-05 23:59N 51°56' E 004°03'0 0.0
2018-Jun-05 23:29N 51°56' E 004°03'0 0.1
2018-Jun-05 22:59N 51°56' E 004°03'0 0.0
2018-Jun-05 22:29N 51°56' E 004°03'0 0.0
2018-Jun-05 21:59N 51°56' E 004°03'0 0.0
2018-Jun-05 21:29N 51°56' E 004°03'0 0.0
2018-Jun-05 20:59N 51°56' E 004°03'0 0.0
2018-Jun-05 20:29N 51°56' E 004°03'0 0.0
2018-Jun-05 19:59N 51°56' E 004°03'0 0.0
2018-Jun-05 19:29N 51°56' E 004°03'0 0.0
2018-Jun-05 18:59N 51°56' E 004°03'0 0.0
2018-Jun-05 18:29N 51°56' E 004°03'0 0.0
2018-Jun-05 17:59N 51°56' E 004°03'0 0.0
2018-Jun-05 17:29N 51°56' E 004°03'0 0.0
2018-Jun-05 16:59N 51°56' E 004°03'0 0.0
2018-Jun-05 16:29N 51°56' E 004°03'0 0.0
2018-Jun-05 15:59N 51°56' E 004°03'0 0.0
2018-Jun-05 15:29N 51°56' E 004°03'0 0.0
2018-Jun-05 14:59N 51°56' E 004°03'0 0.0
2018-Jun-05 14:29N 51°56' E 004°03'0 0.0
2018-Jun-05 13:59N 51°56' E 004°03'0 0.0
2018-Jun-05 13:29N 51°56' E 004°03'0 0.0
2018-Jun-05 12:59N 51°56' E 004°03'0 0.0
2018-Jun-05 12:29N 51°56' E 004°03'0 0.0
2018-Jun-05 11:59N 51°56' E 004°03'0 0.0
2018-Jun-05 11:29N 51°56' E 004°03'0 0.0
2018-Jun-05 10:59N 51°56' E 004°03'0 0.0
2018-Jun-05 10:29N 51°56' E 004°03'0 0.0
2018-Jun-05 09:59N 51°56' E 004°03'0 0.0
2018-Jun-05 09:29N 51°56' E 004°03'0 0.0
2018-Jun-05 08:59N 51°56' E 004°03'0 0.0
2018-Jun-05 08:29N 51°56' E 004°03'0 0.0
2018-Jun-05 07:59N 51°56' E 004°03'0 0.0
2018-Jun-05 07:29N 51°56' E 004°03'0 0.0
2018-Jun-05 06:59N 51°56' E 004°03'0 0.0
2018-Jun-05 06:29N 51°56' E 004°03'0 0.0
2018-Jun-05 05:59N 51°56' E 004°03'0 0.0
2018-Jun-05 05:29N 51°56' E 004°03'0 0.0
2018-Jun-05 04:59N 51°56' E 004°03'0 0.0
2018-Jun-05 04:29N 51°56' E 004°03'0 0.0
2018-Jun-05 03:59N 51°56' E 004°03'0 0.0
2018-Jun-05 03:29N 51°56' E 004°03'0 0.0
2018-Jun-05 02:59N 51°56' E 004°03'0 0.0
2018-Jun-05 02:29N 51°56' E 004°03'0 0.0
2018-Jun-05 01:59N 51°56' E 004°03'0 0.0
2018-Jun-05 01:29N 51°56' E 004°03'0 0.0
2018-Jun-05 00:59N 51°56' E 004°03'0 0.0
2018-Jun-05 00:29N 51°56' E 004°03'0 0.0
2018-Jun-04 23:59N 51°56' E 004°03'0 0.0
2018-Jun-04 23:30N 51°56' E 004°03'0 0.7
2018-Jun-04 23:01N 51°56' E 004°04'2 4.8
2018-Jun-04 22:31N 51°59' E 004°05'4 7.2
2018-Jun-04 22:01N 52°00' E 003°59'4 8.4
2018-Jun-04 21:31N 52°02' E 003°53'4 8.6
2018-Jun-04 21:00N 52°01' E 003°46'4 8.8
2018-Jun-04 20:30N 52°01' E 003°39'5 9.4
2018-Jun-04 20:00N 51°60' E 003°31'5 9.5
2018-Jun-04 19:30N 51°59' E 003°24'5 9.6
2018-Jun-04 19:00N 51°59' E 003°16'5 9.6
2018-Jun-04 18:29N 51°58' E 003°08'4 8.8
2018-Jun-04 18:00N 51°58' E 003°01'4 7.5
2018-Jun-04 17:30N 51°57' E 002°55'2 4.1
2018-Jun-04 17:00N 51°55' E 002°53'0 0.1
2018-Jun-04 15:56N 51°55' E 002°53'0 0.3
2018-Jun-04 15:11N 51°55' E 002°53'0 0.1
2018-Jun-04 14:50N 51°55' E 002°53'0 0.1
2018-Jun-04 14:17N 51°55' E 002°53'0 0.0
2018-Jun-04 13:02N 51°55' E 002°53'0 0.2
2018-Jun-04 12:59N 51°55' E 002°53'0 0.0
2018-Jun-04 12:11N 51°55' E 002°53'0 0.1
2018-Jun-04 11:59N 51°55' E 002°53'0 0.0
2018-Jun-04 11:20N 51°55' E 002°53'0 0.0
2018-Jun-04 10:44N 51°55' E 002°53'0 0.0
2018-Jun-04 10:23N 51°55' E 002°53'0 0.1
2018-Jun-04 07:59N 51°55' E 002°53'0 0.1
2018-Jun-04 07:05N 51°55' E 002°53'0 0.0
2018-Jun-04 06:44N 51°55' E 002°53'0 0.0
2018-Jun-04 06:29N 51°55' E 002°53'0 0.0
2018-Jun-04 05:53N 51°55' E 002°53'0 0.2
2018-Jun-04 05:23N 51°55' E 002°53'0 0.0
2018-Jun-04 04:59N 51°55' E 002°53'0 0.0
2018-Jun-04 04:17N 51°55' E 002°53'0 0.1
2018-Jun-04 03:11N 51°55' E 002°53'0 0.1
2018-Jun-04 01:44N 51°55' E 002°53'0 0.1
2018-Jun-04 01:14N 51°55' E 002°53'0 0.0
2018-Jun-04 00:56N 51°55' E 002°53'0 0.0
2018-Jun-03 23:44N 51°55' E 002°53'0 0.0
2018-Jun-03 23:29N 51°55' E 002°53'0 0.1
2018-Jun-03 22:56N 51°55' E 002°53'0 0.0
2018-Jun-03 21:35N 51°55' E 002°53'0 0.2
2018-Jun-03 21:29N 51°55' E 002°53'  
Track history (hours):
 
Tides and Currents Weather Stations Pressure Air Temp Water Temp Dewpoint Dewpoint Depression Visibility Wind Speed Wind Dir Waves Ship Positions

Nautical Dream

Last reported at 2018-Jun-13 20:13 UTC. Time now 2018-Jun-25 02:21 UTC.
Position N 27°43' W 016°22'.
Warning: this ship's position is 11 days out of date.

Length 292 m; draft 8.4 m.

Type: Cargo ship. MMSI: 636016304.

Date/timePositionNaut miles runAvg speedWind from/ knotsBaromVisibWave heightAir tempDewpointWater temp
2018-Jun-13 20:13N 27°43' W 016°22'315.4
2018-Jun-13 19:59N 27°46' W 016°22'1715.4
2018-Jun-13 18:55N 28°03' W 016°19'615.5
2018-Jun-13 18:31N 28°08' W 016°14'815.3
2018-Jun-13 18:00N 28°14' W 016°09'815.3
2018-Jun-13 17:30N 28°20' W 016°04'714.8
2018-Jun-13 17:01N 28°25' W 015°57'714.9
2018-Jun-13 16:30N 28°30' W 015°52'814.9
2018-Jun-13 16:00N 28°36' W 015°47'714.7
2018-Jun-13 15:30N 28°43' W 015°43'714.7
2018-Jun-13 15:01N 28°50' W 015°41'714.8
2018-Jun-13 14:31N 28°57' W 015°39'714.7
2018-Jun-13 14:00N 29°04' W 015°36'  
2018-Jun-10 00:33N 48°21' W 006°14'3413.6
2018-Jun-09 22:05N 48°51' W 005°49'114.0
2018-Jun-09 22:00N 48°52' W 005°48'3814.5
2018-Jun-09 19:23N 49°13' W 004°60'2315.0
2018-Jun-09 17:51N 49°24' W 004°29'511.5
2018-Jun-09 17:24N 49°27' W 004°22'1412.7
2018-Jun-09 16:16N 49°34' W 004°03'712.8
2018-Jun-09 15:45N 49°37' W 003°54'912.5
2018-Jun-09 15:00N 49°42' W 003°42'612.4
2018-Jun-09 14:30N 49°45' W 003°34'612.3
2018-Jun-09 14:00N 49°48' W 003°25'612.5
2018-Jun-09 13:30N 49°52' W 003°18'612.9
2018-Jun-09 13:00N 49°55' W 003°09'713.3
2018-Jun-09 12:30N 49°58' W 002°60'713.7
2018-Jun-09 12:00N 50°01' W 002°50'714.2
2018-Jun-09 11:30N 50°03' W 002°40'814.7
2018-Jun-09 11:00N 50°05' W 002°28'715.2
2018-Jun-09 10:30N 50°07' W 002°17'815.4
2018-Jun-09 10:00N 50°09' W 002°05'815.4
2018-Jun-09 09:30N 50°11' W 001°54'714.7
2018-Jun-09 09:00N 50°12' W 001°43'611.3
2018-Jun-09 08:30N 50°14' W 001°34'713.7
2018-Jun-09 08:01N 50°16' W 001°24'816.0
2018-Jun-09 07:31N 50°18' W 001°12'815.3
2018-Jun-09 07:01N 50°20' W 001°00'714.7
2018-Jun-09 06:31N 50°22' W 000°49'714.0
2018-Jun-09 06:00N 50°23' W 000°38'713.7
2018-Jun-09 05:30N 50°25' W 000°28'713.5
2018-Jun-09 05:00N 50°27' W 000°18'713.6
2018-Jun-09 04:30N 50°29' W 000°08'713.5
2018-Jun-09 04:00N 50°31' E 000°02'713.7
2018-Jun-09 03:31N 50°33' E 000°13'714.0
2018-Jun-09 03:00N 50°34' E 000°24'714.5
2018-Jun-09 02:30N 50°36' E 000°35'714.9
2018-Jun-09 02:00N 50°40' E 000°44'815.5
2018-Jun-09 01:30N 50°46' E 000°53'815.8
2018-Jun-09 01:00N 50°51' E 001°03'815.8
2018-Jun-09 00:30N 50°56' E 001°12'815.7
2018-Jun-09 00:00N 51°01' E 001°22'815.3
2018-Jun-08 23:30N 51°06' E 001°31'714.7
2018-Jun-08 23:00N 51°10' E 001°40'713.9
2018-Jun-08 22:30N 51°16' E 001°47'714.0
2018-Jun-08 22:00N 51°22' E 001°53'713.7
2018-Jun-08 21:30N 51°28' E 001°58'713.9
2018-Jun-08 21:00N 51°33' E 002°06'713.8
2018-Jun-08 20:30N 51°38' E 002°14'713.7
2018-Jun-08 20:00N 51°42' E 002°22'713.8
2018-Jun-08 19:30N 51°47' E 002°29'714.3
2018-Jun-08 19:00N 51°53' E 002°37'714.9
2018-Jun-08 18:30N 51°58' E 002°46'714.7
2018-Jun-08 18:00N 52°03' E 002°55'814.9
2018-Jun-08 17:30N 52°03' E 003°07'815.7
2018-Jun-08 17:00N 52°03' E 003°20'815.7
2018-Jun-08 16:30N 52°03' E 003°33'714.8
2018-Jun-08 16:00N 52°03' E 003°45'4 8.0
2018-Jun-08 15:30N 52°02' E 003°51'3 5.5
2018-Jun-08 15:00N 52°02' E 003°55'611.2
2018-Jun-08 14:30N 51°59' E 004°03'3 5.9
2018-Jun-08 14:00N 51°57' E 004°05'1 1.8
2018-Jun-08 13:30N 51°56' E 004°04'0 0.1
2018-Jun-08 13:00N 51°56' E 004°03'0 0.0
2018-Jun-08 12:29N 51°56' E 004°03'0 0.0
2018-Jun-08 11:59N 51°56' E 004°03'0 0.0
2018-Jun-08 11:29N 51°56' E 004°03'0 0.0
2018-Jun-08 10:59N 51°56' E 004°03'0 0.0
2018-Jun-08 10:29N 51°56' E 004°03'0 0.0
2018-Jun-08 09:59N 51°56' E 004°03'0 0.0
2018-Jun-08 09:29N 51°56' E 004°03'0 0.0
2018-Jun-08 08:59N 51°56' E 004°03'0 0.0
2018-Jun-08 08:29N 51°56' E 004°03'0 0.0
2018-Jun-08 07:59N 51°56' E 004°03'0 0.0
2018-Jun-08 07:29N 51°56' E 004°03'0 0.0
2018-Jun-08 06:59N 51°56' E 004°03'0 0.0
2018-Jun-08 06:29N 51°56' E 004°03'0 0.0
2018-Jun-08 05:29N 51°56' E 004°03'0 0.0
2018-Jun-08 04:59N 51°56' E 004°03'0 0.0
2018-Jun-08 04:29N 51°56' E 004°03'0 0.0
2018-Jun-08 03:59N 51°56' E 004°03'0 0.0
2018-Jun-08 03:30N 51°56' E 004°03'0 0.0
2018-Jun-08 02:59N 51°56' E 004°03'0 0.0
2018-Jun-08 02:29N 51°56' E 004°03'0 0.0
2018-Jun-08 01:59N 51°56' E 004°03'0 0.0
2018-Jun-08 01:29N 51°56' E 004°03'0 0.0
2018-Jun-08 00:59N 51°56' E 004°03'0 0.0
2018-Jun-08 00:29N 51°56' E 004°03'0 0.0
2018-Jun-07 23:59N 51°56' E 004°03'0 0.0
2018-Jun-07 23:29N 51°56' E 004°03'0 0.0
2018-Jun-07 22:59N 51°56' E 004°03'0 0.0
2018-Jun-07 22:29N 51°56' E 004°03'0 0.0
2018-Jun-07 21:59N 51°56' E 004°03'0 0.0
2018-Jun-07 21:29N 51°56' E 004°03'0 0.0
2018-Jun-07 20:59N 51°56' E 004°03'0 0.0
2018-Jun-07 20:29N 51°56' E 004°03'0 0.0
2018-Jun-07 19:59N 51°56' E 004°03'0 0.0
2018-Jun-07 19:29N 51°56' E 004°03'0 0.0
2018-Jun-07 18:59N 51°56' E 004°03'0 0.0
2018-Jun-07 18:29N 51°56' E 004°03'0 0.0
2018-Jun-07 17:59N 51°56' E 004°03'0 0.0
2018-Jun-07 17:29N 51°56' E 004°03'0 0.0
2018-Jun-07 16:59N 51°56' E 004°03'0 0.0
2018-Jun-07 16:29N 51°56' E 004°03'0 0.0
2018-Jun-07 15:59N 51°56' E 004°03'0 0.0
2018-Jun-07 15:29N 51°56' E 004°03'0 0.0
2018-Jun-07 14:59N 51°56' E 004°03'0 0.0
2018-Jun-07 14:29N 51°56' E 004°03'0 0.0
2018-Jun-07 13:59N 51°56' E 004°03'0 0.0
2018-Jun-07 13:29N 51°56' E 004°03'0 0.0
2018-Jun-07 12:59N 51°56' E 004°03'0 0.0
2018-Jun-07 12:29N 51°56' E 004°03'0 0.0
2018-Jun-07 11:59N 51°56' E 004°03'0 0.0
2018-Jun-07 11:29N 51°56' E 004°03'0 0.0
2018-Jun-07 10:59N 51°56' E 004°03'0 0.0
2018-Jun-07 10:29N 51°56' E 004°03'0 0.0
2018-Jun-07 09:59N 51°56' E 004°03'0 0.0
2018-Jun-07 09:29N 51°56' E 004°03'0 0.0
2018-Jun-07 08:59N 51°56' E 004°03'0 0.0
2018-Jun-07 08:29N 51°56' E 004°03'0 0.0
2018-Jun-07 07:59N 51°56' E 004°03'0 0.0
2018-Jun-07 07:29N 51°56' E 004°03'0 0.0
2018-Jun-07 06:59N 51°56' E 004°03'0 0.0
2018-Jun-07 06:29N 51°56' E 004°03'0 0.0
2018-Jun-07 05:59N 51°56' E 004°03'0 0.0
2018-Jun-07 05:29N 51°56' E 004°03'0 0.0
2018-Jun-07 04:59N 51°56' E 004°03'0 0.0
2018-Jun-07 04:29N 51°56' E 004°03'0 0.0
2018-Jun-07 03:59N 51°56' E 004°03'0 0.0
2018-Jun-07 03:29N 51°56' E 004°03'0 0.0
2018-Jun-07 02:59N 51°56' E 004°03'0 0.0
2018-Jun-07 02:29N 51°56' E 004°03'0 0.0
2018-Jun-07 01:59N 51°56' E 004°03'0 0.0
2018-Jun-07 01:26N 51°56' E 004°03'0 0.0
2018-Jun-07 00:59N 51°56' E 004°03'0 0.0
2018-Jun-07 00:29N 51°56' E 004°03'0 0.0
2018-Jun-06 23:59N 51°56' E 004°03'0 0.0
2018-Jun-06 23:29N 51°56' E 004°03'0 0.0
2018-Jun-06 22:59N 51°56' E 004°03'0 0.0
2018-Jun-06 22:29N 51°56' E 004°03'0 0.0
2018-Jun-06 21:59N 51°56' E 004°03'0 0.0
2018-Jun-06 21:29N 51°56' E 004°03'0 0.0
2018-Jun-06 20:59N 51°56' E 004°03'0 0.0
2018-Jun-06 20:29N 51°56' E 004°03'0 0.0
2018-Jun-06 19:59N 51°56' E 004°03'0 0.0
2018-Jun-06 19:26N 51°56' E 004°03'0 0.0
2018-Jun-06 18:59N 51°56' E 004°03'0 0.0
2018-Jun-06 18:29N 51°56' E 004°03'0 0.0
2018-Jun-06 17:59N 51°56' E 004°03'0 0.0
2018-Jun-06 17:29N 51°56' E 004°03'0 0.0
2018-Jun-06 16:59N 51°56' E 004°03'0 0.0
2018-Jun-06 16:29N 51°56' E 004°03'0 0.0
2018-Jun-06 15:59N 51°56' E 004°03'0 0.0
2018-Jun-06 15:29N 51°56' E 004°03'0 0.0
2018-Jun-06 14:29N 51°56' E 004°03'0 0.0
2018-Jun-06 13:59N 51°56' E 004°03'0 0.0
2018-Jun-06 13:26N 51°56' E 004°03'0 0.0
2018-Jun-06 12:59N 51°56' E 004°03'0 0.0
2018-Jun-06 12:29N 51°56' E 004°03'0 0.0
2018-Jun-06 11:59N 51°56' E 004°03'0 0.1
2018-Jun-06 11:29N 51°56' E 004°03'0 0.1
2018-Jun-06 10:59N 51°56' E 004°03'0 0.0
2018-Jun-06 10:29N 51°56' E 004°03'0 0.0
2018-Jun-06 09:59N 51°56' E 004°03'0 0.0
2018-Jun-06 09:29N 51°56' E 004°03'0 0.0
2018-Jun-06 08:59N 51°56' E 004°03'0 0.0
2018-Jun-06 08:29N 51°56' E 004°03'0 0.0
2018-Jun-06 07:59N 51°56' E 004°03'0 0.0
2018-Jun-06 07:29N 51°56' E 004°03'0 0.0
2018-Jun-06 06:59N 51°56' E 004°03'0 0.0
2018-Jun-06 06:29N 51°56' E 004°03'0 0.0
2018-Jun-06 05:59N 51°56' E 004°03'0 0.0
2018-Jun-06 05:29N 51°56' E 004°03'0 0.0
2018-Jun-06 04:59N 51°56' E 004°03'0 0.0
2018-Jun-06 04:29N 51°56' E 004°03'0 0.0
2018-Jun-06 03:59N 51°56' E 004°03'0 0.1
2018-Jun-06 03:29N 51°56' E 004°03'0 0.0
2018-Jun-06 02:59N 51°56' E 004°03'0 0.0
2018-Jun-06 02:29N 51°56' E 004°03'0 0.0
2018-Jun-06 01:59N 51°56' E 004°03'0 0.0
2018-Jun-06 01:29N 51°56' E 004°03'0 0.0
2018-Jun-06 00:59N 51°56' E 004°03'0 0.0
2018-Jun-06 00:29N 51°56' E 004°03'0 0.0
2018-Jun-05 23:59N 51°56' E 004°03'0 0.0
2018-Jun-05 23:29N 51°56' E 004°03'0 0.1
2018-Jun-05 22:59N 51°56' E 004°03'0 0.0
2018-Jun-05 22:29N 51°56' E 004°03'0 0.0
2018-Jun-05 21:59N 51°56' E 004°03'0 0.0
2018-Jun-05 21:29N 51°56' E 004°03'0 0.0
2018-Jun-05 20:59N 51°56' E 004°03'0 0.0
2018-Jun-05 20:29N 51°56' E 004°03'0 0.0
2018-Jun-05 19:59N 51°56' E 004°03'0 0.0
2018-Jun-05 19:29N 51°56' E 004°03'0 0.0
2018-Jun-05 18:59N 51°56' E 004°03'0 0.0
2018-Jun-05 18:29N 51°56' E 004°03'0 0.0
2018-Jun-05 17:59N 51°56' E 004°03'0 0.0
2018-Jun-05 17:29N 51°56' E 004°03'0 0.0
2018-Jun-05 16:59N 51°56' E 004°03'0 0.0
2018-Jun-05 16:29N 51°56' E 004°03'0 0.0
2018-Jun-05 15:59N 51°56' E 004°03'0 0.0
2018-Jun-05 15:29N 51°56' E 004°03'0 0.0
2018-Jun-05 14:59N 51°56' E 004°03'0 0.0
2018-Jun-05 14:29N 51°56' E 004°03'0 0.0
2018-Jun-05 13:59N 51°56' E 004°03'0 0.0
2018-Jun-05 13:29N 51°56' E 004°03'0 0.0
2018-Jun-05 12:59N 51°56' E 004°03'0 0.0
2018-Jun-05 12:29N 51°56' E 004°03'0 0.0
2018-Jun-05 11:59N 51°56' E 004°03'0 0.0
2018-Jun-05 11:29N 51°56' E 004°03'0 0.0
2018-Jun-05 10:59N 51°56' E 004°03'0 0.0
2018-Jun-05 10:29N 51°56' E 004°03'0 0.0
2018-Jun-05 09:59N 51°56' E 004°03'0 0.0
2018-Jun-05 09:29N 51°56' E 004°03'0 0.0
2018-Jun-05 08:59N 51°56' E 004°03'0 0.0
2018-Jun-05 08:29N 51°56' E 004°03'0 0.0
2018-Jun-05 07:59N 51°56' E 004°03'0 0.0
2018-Jun-05 07:29N 51°56' E 004°03'0 0.0
2018-Jun-05 06:59N 51°56' E 004°03'0 0.0
2018-Jun-05 06:29N 51°56' E 004°03'0 0.0
2018-Jun-05 05:59N 51°56' E 004°03'0 0.0
2018-Jun-05 05:29N 51°56' E 004°03'0 0.0
2018-Jun-05 04:59N 51°56' E 004°03'0 0.0
2018-Jun-05 04:29N 51°56' E 004°03'0 0.0
2018-Jun-05 03:59N 51°56' E 004°03'0 0.0
2018-Jun-05 03:29N 51°56' E 004°03'0 0.0
2018-Jun-05 02:59N 51°56' E 004°03'0 0.0
2018-Jun-05 02:29N 51°56' E 004°03'0 0.0
2018-Jun-05 01:59N 51°56' E 004°03'0 0.0
2018-Jun-05 01:29N 51°56' E 004°03'0 0.0
2018-Jun-05 00:59N 51°56' E 004°03'0 0.0
2018-Jun-05 00:29N 51°56' E 004°03'0 0.0
2018-Jun-04 23:59N 51°56' E 004°03'0 0.0
2018-Jun-04 23:30N 51°56' E 004°03'0 0.7
2018-Jun-04 23:01N 51°56' E 004°04'2 4.8
2018-Jun-04 22:31N 51°59' E 004°05'4 7.2
2018-Jun-04 22:01N 52°00' E 003°59'4 8.4
2018-Jun-04 21:31N 52°02' E 003°53'4 8.6
2018-Jun-04 21:00N 52°01' E 003°46'4 8.8
2018-Jun-04 20:30N 52°01' E 003°39'5 9.4
2018-Jun-04 20:00N 51°60' E 003°31'5 9.5
2018-Jun-04 19:30N 51°59' E 003°24'5 9.6
2018-Jun-04 19:00N 51°59' E 003°16'5 9.6
2018-Jun-04 18:29N 51°58' E 003°08'4 8.8
2018-Jun-04 18:00N 51°58' E 003°01'4 7.5
2018-Jun-04 17:30N 51°57' E 002°55'2 4.1
2018-Jun-04 17:00N 51°55' E 002°53'0 0.1
2018-Jun-04 15:56N 51°55' E 002°53'0 0.3
2018-Jun-04 15:11N 51°55' E 002°53'0 0.1
2018-Jun-04 14:50N 51°55' E 002°53'0 0.1
2018-Jun-04 14:17N 51°55' E 002°53'0 0.0
2018-Jun-04 13:02N 51°55' E 002°53'0 0.2
2018-Jun-04 12:59N 51°55' E 002°53'0 0.0
2018-Jun-04 12:11N 51°55' E 002°53'0 0.1
2018-Jun-04 11:59N 51°55' E 002°53'0 0.0
2018-Jun-04 11:20N 51°55' E 002°53'0 0.0
2018-Jun-04 10:44N 51°55' E 002°53'0 0.0
2018-Jun-04 10:23N 51°55' E 002°53'0 0.1
2018-Jun-04 07:59N 51°55' E 002°53'0 0.1
2018-Jun-04 07:05N 51°55' E 002°53'0 0.0
2018-Jun-04 06:44N 51°55' E 002°53'0 0.0
2018-Jun-04 06:29N 51°55' E 002°53'0 0.0
2018-Jun-04 05:53N 51°55' E 002°53'0 0.2
2018-Jun-04 05:23N 51°55' E 002°53'0 0.0
2018-Jun-04 04:59N 51°55' E 002°53'0 0.0
2018-Jun-04 04:17N 51°55' E 002°53'0 0.1
2018-Jun-04 03:11N 51°55' E 002°53'0 0.1
2018-Jun-04 01:44N 51°55' E 002°53'0 0.1
2018-Jun-04 01:14N 51°55' E 002°53'0 0.0
2018-Jun-04 00:56N 51°55' E 002°53'0 0.0
2018-Jun-03 23:44N 51°55' E 002°53'0 0.0
2018-Jun-03 23:29N 51°55' E 002°53'0 0.1
2018-Jun-03 22:56N 51°55' E 002°53'0 0.0
2018-Jun-03 21:35N 51°55' E 002°53'0 0.2
2018-Jun-03 21:29N 51°55' E 002°53'  

Dump ship's entire track history